createdAt,value
2019-02-25T00:01:51.390Z,102298.00
2019-02-25T00:04:24.209Z,102289.00
2019-02-25T00:06:57.038Z,102298.00
2019-02-25T00:09:29.847Z,102296.00
2019-02-25T00:12:02.636Z,102288.00
2019-02-25T00:14:35.443Z,102286.00
2019-02-25T00:17:08.535Z,102288.00
2019-02-25T00:19:41.344Z,102277.00
2019-02-25T00:22:14.189Z,102280.00
2019-02-25T00:24:47.215Z,102276.00
2019-02-25T00:27:20.040Z,102288.00
2019-02-25T00:29:52.852Z,102285.00
2019-02-25T00:32:25.676Z,102289.00
2019-02-25T00:34:58.600Z,102291.00
2019-02-25T00:37:31.412Z,102283.00
2019-02-25T00:40:04.681Z,102296.00
2019-02-25T00:42:37.583Z,102281.00
2019-02-25T00:45:11.658Z,102283.00
2019-02-25T00:47:44.479Z,102285.00
2019-02-25T00:50:17.314Z,102289.00
2019-02-25T00:52:50.156Z,102287.00
2019-02-25T00:55:22.975Z,102287.00
2019-02-25T00:57:55.786Z,102275.00
2019-02-25T01:00:28.792Z,102269.00
2019-02-25T01:03:01.603Z,102268.00
2019-02-25T01:05:34.545Z,102269.00
2019-02-25T01:08:07.906Z,102282.00
2019-02-25T01:10:40.811Z,102274.00
2019-02-25T01:13:13.621Z,102282.00
2019-02-25T01:15:46.524Z,102278.00
2019-02-25T01:18:19.335Z,102271.00
2019-02-25T01:20:52.153Z,102285.00
2019-02-25T01:23:24.958Z,102282.00
2019-02-25T01:25:57.780Z,102283.00
2019-02-25T01:28:30.610Z,102288.00
2019-02-25T01:31:03.621Z,102282.00
2019-02-25T01:33:36.440Z,102289.00
2019-02-25T01:36:09.331Z,102291.00
2019-02-25T01:38:42.160Z,102279.00
2019-02-25T01:41:14.964Z,102287.00
2019-02-25T01:43:47.822Z,102292.00
2019-02-25T01:46:20.723Z,102287.00
2019-02-25T01:48:53.655Z,102298.00
2019-02-25T01:51:27.568Z,102294.00
2019-02-25T01:54:00.453Z,102295.00
2019-02-25T01:56:33.268Z,102294.00
2019-02-25T01:59:07.187Z,102296.00
2019-02-25T02:01:40.063Z,102287.00
2019-02-25T02:04:12.867Z,102301.00
2019-02-25T02:06:45.669Z,102302.00
2019-02-25T02:09:18.505Z,102298.00
2019-02-25T02:11:51.306Z,102305.00
2019-02-25T02:14:24.137Z,102291.00
2019-02-25T02:16:56.955Z,102285.00
2019-02-25T02:19:29.961Z,102295.00
2019-02-25T02:22:02.756Z,102299.00
2019-02-25T02:24:35.561Z,102309.00
2019-02-25T02:27:08.378Z,102296.00
2019-02-25T02:29:42.303Z,102297.00
2019-02-25T02:32:15.124Z,102296.00
2019-02-25T02:34:47.938Z,102294.00
2019-02-25T02:37:20.749Z,102294.00
2019-02-25T02:39:53.571Z,102288.00
2019-02-25T02:42:26.680Z,102295.00
2019-02-25T02:45:30.193Z,102299.00
2019-02-25T02:48:11.077Z,102301.00
2019-02-25T02:50:43.924Z,102301.00
2019-02-25T02:53:16.735Z,102299.00
2019-02-25T02:55:49.526Z,102287.00
2019-02-25T02:58:22.332Z,102294.00
2019-02-25T03:00:55.185Z,102292.00
2019-02-25T03:03:27.991Z,102294.00
2019-02-25T03:06:00.834Z,102286.00
2019-02-25T03:08:33.736Z,102286.00
2019-02-25T03:11:06.552Z,102279.00
2019-02-25T03:13:39.361Z,102289.00
2019-02-25T03:16:12.154Z,102278.00
2019-02-25T03:18:44.999Z,102280.00
2019-02-25T03:21:17.839Z,102273.00
2019-02-25T03:23:50.669Z,102280.00
2019-02-25T03:26:23.482Z,102283.00
2019-02-25T03:28:56.384Z,102287.00
2019-02-25T03:31:29.297Z,102277.00
2019-02-25T03:34:02.125Z,102272.00
2019-02-25T03:36:34.923Z,102277.00
2019-02-25T03:39:07.756Z,102270.00
2019-02-25T03:41:40.555Z,102275.00
2019-02-25T03:44:13.446Z,102258.00
2019-02-25T03:46:46.248Z,102261.00
2019-02-25T03:49:19.062Z,102261.00
2019-02-25T03:51:51.845Z,102272.00
2019-02-25T03:54:24.667Z,102275.00
2019-02-25T03:56:57.493Z,102276.00
2019-02-25T03:59:30.317Z,102269.00
2019-02-25T04:02:03.113Z,102270.00
2019-02-25T04:04:36.011Z,102265.00
2019-02-25T04:07:08.838Z,102270.00
2019-02-25T04:09:41.655Z,102276.00
2019-02-25T04:12:14.436Z,102273.00
2019-02-25T04:14:47.255Z,102264.00
2019-02-25T04:17:20.056Z,102272.00
2019-02-25T04:19:52.895Z,102274.00
2019-02-25T04:22:25.696Z,102275.00
2019-02-25T04:24:58.542Z,102274.00
2019-02-25T04:27:31.339Z,102278.00
2019-02-25T04:30:05.315Z,102286.00
2019-02-25T04:32:38.140Z,102292.00
2019-02-25T04:35:12.013Z,102278.00
2019-02-25T04:37:44.932Z,102278.00
2019-02-25T04:40:17.754Z,102281.00
2019-02-25T04:42:50.541Z,102277.00
2019-02-25T04:45:23.344Z,102277.00
2019-02-25T04:47:56.219Z,102277.00
2019-02-25T04:50:29.020Z,102279.00
2019-02-25T04:53:01.829Z,102279.00
2019-02-25T04:55:34.696Z,102287.00
2019-02-25T04:58:07.525Z,102272.00
2019-02-25T05:00:40.375Z,102269.00
2019-02-25T05:03:13.173Z,102275.00
2019-02-25T05:05:45.994Z,102277.00
2019-02-25T05:08:18.801Z,102286.00
2019-02-25T05:10:51.613Z,102282.00
2019-02-25T05:13:24.424Z,102281.00
2019-02-25T05:15:57.252Z,102274.00
2019-02-25T05:18:30.079Z,102277.00
2019-02-25T05:21:02.940Z,102271.00
2019-02-25T05:23:35.731Z,102268.00
2019-02-25T05:26:08.575Z,102275.00
2019-02-25T05:28:41.378Z,102272.00
2019-02-25T05:31:15.419Z,102276.00
2019-02-25T05:33:48.202Z,102270.00
2019-02-25T05:36:21.014Z,102262.00
2019-02-25T05:38:53.843Z,102267.00
2019-02-25T05:41:26.675Z,102271.00
2019-02-25T05:43:59.495Z,102268.00
2019-02-25T05:46:32.331Z,102272.00
2019-02-25T05:49:05.144Z,102269.00
2019-02-25T05:51:37.943Z,102277.00
2019-02-25T05:54:10.742Z,102284.00
2019-02-25T05:56:43.834Z,102275.00
2019-02-25T05:59:16.733Z,102280.00
2019-02-25T06:01:49.568Z,102277.00
2019-02-25T06:04:22.374Z,102286.00
2019-02-25T06:06:55.209Z,102296.00
2019-02-25T06:09:28.005Z,102304.00
2019-02-25T06:12:00.874Z,102301.00
2019-02-25T06:14:33.708Z,102304.00
2019-02-25T06:17:06.546Z,102303.00
2019-02-25T06:19:39.392Z,102307.00
2019-02-25T06:22:12.223Z,102299.00
2019-02-25T06:24:45.132Z,102305.00
2019-02-25T06:27:17.962Z,102300.00
2019-02-25T06:29:50.855Z,102306.00
2019-02-25T06:32:24.761Z,102293.00
2019-02-25T06:34:57.572Z,102297.00
2019-02-25T06:37:30.408Z,102299.00
2019-02-25T06:40:03.959Z,102300.00
2019-02-25T06:42:36.816Z,102305.00
2019-02-25T06:45:12.286Z,102291.00
2019-02-25T06:47:45.137Z,102298.00
2019-02-25T06:50:18.149Z,102291.00
2019-02-25T06:52:51.008Z,102302.00
2019-02-25T06:55:23.822Z,102300.00
2019-02-25T06:57:56.627Z,102304.00
2019-02-25T07:00:29.438Z,102308.00
2019-02-25T07:03:02.293Z,102298.00
2019-02-25T07:05:57.731Z,102302.00
2019-02-25T07:08:50.273Z,102311.00
2019-02-25T07:11:45.519Z,102319.00
2019-02-25T07:14:53.066Z,102329.00
2019-02-25T07:17:45.546Z,102326.00
2019-02-25T07:20:43.783Z,102321.00
2019-02-25T07:23:39.057Z,102335.00
2019-02-25T07:26:22.208Z,102337.00
2019-02-25T07:29:03.513Z,102331.00
2019-02-25T07:32:02.797Z,102328.00
2019-02-25T07:34:44.985Z,102329.00
2019-02-25T07:37:40.322Z,102319.00
2019-02-25T07:40:32.844Z,102323.00
2019-02-25T07:43:15.590Z,102338.00
2019-02-25T07:46:20.119Z,102335.00
2019-02-25T07:49:24.708Z,102327.00
2019-02-25T07:52:19.950Z,102346.00
2019-02-25T07:55:24.453Z,102356.00
2019-02-25T07:58:14.964Z,102352.00
2019-02-25T08:01:05.838Z,102355.00
2019-02-25T08:03:54.180Z,102354.00
2019-02-25T08:06:58.744Z,102348.00
2019-02-25T08:09:43.900Z,102344.00
2019-02-25T08:12:41.888Z,102360.00
2019-02-25T08:15:21.823Z,102357.00
2019-02-25T08:18:14.285Z,102358.00
2019-02-25T08:21:12.711Z,102364.00
2019-02-25T08:24:07.948Z,102368.00
2019-02-25T08:27:00.585Z,102365.00
2019-02-25T08:29:55.792Z,102374.00
2019-02-25T08:32:54.282Z,102385.00
2019-02-25T08:36:49.226Z,102391.00
2019-02-25T08:39:31.100Z,102391.00
2019-02-25T08:42:17.525Z,102394.00
2019-02-25T08:45:12.735Z,102396.00
2019-02-25T08:47:51.890Z,102405.00
2019-02-25T08:50:24.769Z,102401.00
2019-02-25T08:52:57.554Z,102407.00
2019-02-25T08:55:30.366Z,102405.00
2019-02-25T08:58:03.278Z,102395.00
2019-02-25T09:00:36.088Z,102397.00
2019-02-25T09:03:09.016Z,102399.00
2019-02-25T09:05:41.829Z,102415.00
2019-02-25T09:08:14.669Z,102399.00
2019-02-25T09:10:47.476Z,102403.00
2019-02-25T09:13:20.328Z,102392.00
2019-02-25T09:15:53.158Z,102398.00
2019-02-25T09:18:25.969Z,102393.00
2019-02-25T09:20:58.921Z,102400.00
2019-02-25T09:23:31.950Z,102402.00
2019-02-25T09:26:04.768Z,102406.00
2019-02-25T09:28:37.629Z,102409.00
2019-02-25T09:31:10.448Z,102412.00
2019-02-25T09:33:43.279Z,102408.00
2019-02-25T09:36:16.189Z,102405.00
2019-02-25T09:38:48.984Z,102399.00
2019-02-25T09:41:29.697Z,102402.00
2019-02-25T09:43:56.526Z,102410.00
2019-02-25T09:46:29.339Z,102409.00
2019-02-25T09:49:02.155Z,102415.00
2019-02-25T09:51:34.981Z,102406.00
2019-02-25T09:54:07.892Z,102412.00
2019-02-25T09:56:40.727Z,102404.00
2019-02-25T09:59:13.608Z,102395.00
2019-02-25T10:01:46.467Z,102398.00
2019-02-25T10:04:19.345Z,102396.00
2019-02-25T10:06:52.199Z,102391.00
2019-02-25T10:09:29.797Z,102393.00
2019-02-25T10:11:59.906Z,102388.00
2019-02-25T10:14:32.864Z,102388.00
2019-02-25T10:17:05.717Z,102393.00
2019-02-25T10:19:38.544Z,102385.00
2019-02-25T10:22:11.455Z,102381.00
2019-02-25T10:24:44.322Z,102377.00
2019-02-25T10:27:17.188Z,102378.00
2019-02-25T10:29:50.059Z,102372.00
2019-02-25T10:32:25.249Z,102370.00
2019-02-25T10:34:57.656Z,102367.00
2019-02-25T10:37:30.564Z,102369.00
2019-02-25T10:40:04.661Z,102377.00
2019-02-25T10:42:37.837Z,102390.00
2019-02-25T10:45:13.999Z,102397.00
2019-02-25T10:47:48.998Z,102397.00
2019-02-25T10:50:21.760Z,102386.00
2019-02-25T10:53:03.256Z,102392.00
2019-02-25T10:55:35.861Z,102398.00
2019-02-25T10:58:09.279Z,102401.00
2019-02-25T11:00:43.648Z,102396.00
2019-02-25T11:03:17.866Z,102396.00
2019-02-25T11:05:52.211Z,102400.00
2019-02-25T11:08:27.250Z,102396.00
2019-02-25T11:11:04.217Z,102394.00
2019-02-25T11:13:37.083Z,102395.00
2019-02-25T11:16:11.810Z,102395.00
2019-02-25T11:18:44.636Z,102403.00
2019-02-25T11:21:17.487Z,102401.00
2019-02-25T11:23:51.704Z,102395.00
2019-02-25T11:26:26.638Z,102402.00
2019-02-25T11:28:59.781Z,102404.00
2019-02-25T11:31:33.613Z,102396.00
2019-02-25T11:34:08.034Z,102393.00
2019-02-25T11:36:40.935Z,102399.00
2019-02-25T11:39:14.881Z,102397.00
2019-02-25T11:41:47.832Z,102395.00
2019-02-25T11:44:21.251Z,102390.00
2019-02-25T11:46:55.438Z,102390.00
2019-02-25T11:49:28.287Z,102394.00
2019-02-25T11:52:01.107Z,102392.00
2019-02-25T11:54:33.977Z,102391.00
2019-02-25T11:57:06.996Z,102384.00
2019-02-25T11:59:39.859Z,102385.00
2019-02-25T12:02:12.712Z,102373.00
2019-02-25T12:04:45.557Z,102378.00
2019-02-25T12:07:18.367Z,102374.00
2019-02-25T12:09:51.253Z,102374.00
2019-02-25T12:12:24.065Z,102364.00
2019-02-25T12:14:56.912Z,102361.00
2019-02-25T12:17:29.838Z,102363.00
2019-02-25T12:20:03.051Z,102359.00
2019-02-25T12:22:35.869Z,102361.00
2019-02-25T12:25:10.289Z,102362.00
2019-02-25T12:27:43.179Z,102366.00
2019-02-25T12:30:17.384Z,102364.00
2019-02-25T12:32:50.336Z,102364.00
2019-02-25T12:35:23.199Z,102362.00
2019-02-25T12:37:56.049Z,102359.00
2019-02-25T12:40:28.939Z,102357.00
2019-02-25T12:43:01.788Z,102351.00
2019-02-25T12:45:35.732Z,102359.00
2019-02-25T12:48:08.665Z,102353.00
2019-02-25T12:50:41.492Z,102353.00
2019-02-25T12:53:14.296Z,102349.00
2019-02-25T12:55:47.207Z,102350.00
2019-02-25T12:58:20.082Z,102347.00
2019-02-25T13:00:52.966Z,102349.00
2019-02-25T13:03:25.775Z,102347.00
2019-02-25T13:05:58.600Z,102341.00
2019-02-25T13:08:31.418Z,102343.00
2019-02-25T13:11:04.285Z,102340.00
2019-02-25T13:13:38.221Z,102341.00
2019-02-25T13:16:11.063Z,102345.00
2019-02-25T13:18:43.902Z,102336.00
2019-02-25T13:21:16.748Z,102325.00
2019-02-25T13:23:49.559Z,102324.00
2019-02-25T13:26:22.411Z,102317.00
2019-02-25T13:28:55.260Z,102318.00
2019-02-25T13:31:28.116Z,102318.00
2019-02-25T13:34:00.899Z,102324.00
2019-02-25T13:36:33.752Z,102313.00
2019-02-25T13:39:07.317Z,102304.00
2019-02-25T13:41:40.577Z,102303.00
2019-02-25T13:44:13.425Z,102289.00
2019-02-25T13:46:46.283Z,102292.00
2019-02-25T13:49:19.169Z,102275.00
2019-02-25T13:51:52.064Z,102278.00
2019-02-25T13:54:24.913Z,102267.00
2019-02-25T13:56:57.875Z,102259.00
2019-02-25T13:59:30.803Z,102245.00
2019-02-25T14:02:03.672Z,102247.00
2019-02-25T14:04:36.518Z,102242.00
2019-02-25T14:07:10.303Z,102243.00
2019-02-25T14:09:43.249Z,102236.00
2019-02-25T14:12:16.203Z,102237.00
2019-02-25T14:14:49.047Z,102236.00
2019-02-25T14:17:22.124Z,102227.00
2019-02-25T14:19:55.232Z,102233.00
2019-02-25T14:22:28.080Z,102237.00
2019-02-25T14:25:03.596Z,102236.00
2019-02-25T14:27:35.818Z,102225.00
2019-02-25T14:30:14.150Z,102220.00
2019-02-25T14:32:47.304Z,102210.00
2019-02-25T14:35:22.847Z,102213.00
2019-02-25T14:37:57.230Z,102210.00
2019-02-25T14:40:32.666Z,102201.00
2019-02-25T14:43:06.128Z,102191.00
2019-02-25T14:45:42.022Z,102191.00
2019-02-25T14:48:18.213Z,102194.00
2019-02-25T14:50:48.667Z,102191.00
2019-02-25T14:53:21.568Z,102198.00
2019-02-25T14:55:56.054Z,102190.00
2019-02-25T14:58:31.353Z,102189.00
2019-02-25T15:01:05.144Z,102193.00
2019-02-25T15:03:38.043Z,102195.00
2019-02-25T15:06:11.010Z,102191.00
2019-02-25T15:08:43.861Z,102194.00
2019-02-25T15:11:16.744Z,102190.00
2019-02-25T15:13:49.862Z,102195.00
2019-02-25T15:16:22.777Z,102196.00
2019-02-25T15:18:55.679Z,102194.00
2019-02-25T15:21:28.527Z,102194.00
2019-02-25T15:24:02.583Z,102199.00
2019-02-25T15:26:42.878Z,102193.00
2019-02-25T15:29:11.252Z,102192.00
2019-02-25T15:31:44.400Z,102196.00
2019-02-25T15:34:19.281Z,102188.00
2019-02-25T15:36:52.186Z,102190.00
2019-02-25T15:39:26.024Z,102173.00
2019-02-25T15:41:59.479Z,102179.00
2019-02-25T15:44:32.608Z,102175.00
2019-02-25T15:47:07.004Z,102176.00
2019-02-25T15:49:41.474Z,102173.00
2019-02-25T15:52:16.539Z,102184.00
2019-02-25T15:54:49.081Z,102182.00
2019-02-25T15:57:22.563Z,102169.00
2019-02-25T15:59:56.902Z,102179.00
2019-02-25T16:02:29.775Z,102186.00
2019-02-25T16:05:05.376Z,102169.00
2019-02-25T16:07:40.122Z,102177.00
2019-02-25T16:10:14.727Z,102178.00
2019-02-25T16:12:48.950Z,102177.00
2019-02-25T16:15:22.066Z,102176.00
2019-02-25T16:17:54.993Z,102172.00
2019-02-25T16:20:32.256Z,102175.00
2019-02-25T16:23:06.026Z,102175.00
2019-02-25T16:25:39.648Z,102170.00
2019-02-25T16:28:14.789Z,102163.00
2019-02-25T16:30:49.021Z,102166.00
2019-02-25T16:33:23.743Z,102166.00
2019-02-25T16:35:56.952Z,102160.00
2019-02-25T16:38:31.486Z,102166.00
2019-02-25T16:41:07.911Z,102168.00
2019-02-25T16:43:40.988Z,102172.00
2019-02-25T16:46:16.267Z,102166.00
2019-02-25T16:48:51.085Z,102158.00
2019-02-25T16:51:25.912Z,102154.00
2019-02-25T16:53:59.772Z,102147.00
2019-02-25T16:56:33.890Z,102144.00
2019-02-25T16:59:10.834Z,102147.00
2019-02-25T17:01:41.705Z,102153.00
2019-02-25T17:04:16.841Z,102156.00
2019-02-25T17:06:51.313Z,102148.00
2019-02-25T17:09:26.998Z,102141.00
2019-02-25T17:12:00.707Z,102143.00
2019-02-25T17:14:35.236Z,102141.00
2019-02-25T17:17:11.005Z,102142.00
2019-02-25T17:19:43.930Z,102147.00
2019-02-25T17:22:16.760Z,102146.00
2019-02-25T17:24:52.465Z,102148.00
2019-02-25T17:27:25.694Z,102151.00
2019-02-25T17:29:59.820Z,102157.00
2019-02-25T17:32:33.975Z,102156.00
2019-02-25T17:35:08.096Z,102151.00
2019-02-25T17:37:41.119Z,102152.00
2019-02-25T17:40:15.485Z,102160.00
2019-02-25T17:42:49.488Z,102155.00
2019-02-25T17:45:25.127Z,102152.00
2019-02-25T17:48:01.241Z,102156.00
2019-02-25T17:50:35.344Z,102163.00
2019-02-25T17:53:09.769Z,102162.00
2019-02-25T17:55:42.864Z,102171.00
2019-02-25T17:58:17.068Z,102178.00
2019-02-25T18:00:51.078Z,102180.00
2019-02-25T18:03:24.269Z,102179.00
2019-02-25T18:06:00.526Z,102174.00
2019-02-25T18:08:34.295Z,102169.00
2019-02-25T18:11:08.393Z,102170.00
2019-02-25T18:13:41.414Z,102166.00
2019-02-25T18:16:16.282Z,102166.00
2019-02-25T18:18:51.953Z,102165.00
2019-02-25T18:21:28.247Z,102166.00
2019-02-25T18:23:58.723Z,102165.00
2019-02-25T18:26:31.937Z,102165.00
2019-02-25T18:29:05.564Z,102165.00
2019-02-25T18:31:39.877Z,102167.00
2019-02-25T18:34:13.720Z,102170.00
2019-02-25T18:36:49.033Z,102161.00
2019-02-25T18:39:23.520Z,102167.00
2019-02-25T18:41:57.431Z,102160.00
2019-02-25T18:44:30.524Z,102159.00
2019-02-25T18:47:03.461Z,102158.00
2019-02-25T18:49:37.108Z,102160.00
2019-02-25T18:52:10.116Z,102163.00
2019-02-25T18:54:44.942Z,102153.00
2019-02-25T18:57:18.911Z,102154.00
2019-02-25T18:59:54.797Z,102150.00
2019-02-25T19:02:28.777Z,102155.00
2019-02-25T19:05:04.348Z,102158.00
2019-02-25T19:07:37.391Z,102151.00
2019-02-25T19:10:12.509Z,102159.00
2019-02-25T19:12:47.992Z,102149.00
2019-02-25T19:15:21.383Z,102146.00
2019-02-25T19:17:54.518Z,102139.00
2019-02-25T19:20:27.744Z,102141.00
2019-02-25T19:23:02.774Z,102138.00
2019-02-25T19:25:36.411Z,102132.00
2019-02-25T19:28:14.058Z,102138.00
2019-02-25T19:30:45.324Z,102128.00
2019-02-25T19:33:20.463Z,102127.00
2019-02-25T19:35:54.399Z,102127.00
2019-02-25T19:38:32.010Z,102115.00
2019-02-25T19:41:04.966Z,102122.00
2019-02-25T19:43:38.256Z,102118.00
2019-02-25T19:46:11.917Z,102130.00
2019-02-25T19:48:47.433Z,102126.00
2019-02-25T19:51:22.462Z,102120.00
2019-02-25T19:53:55.808Z,102117.00
2019-02-25T19:56:29.029Z,102134.00
2019-02-25T19:59:03.694Z,102138.00
2019-02-25T20:01:39.297Z,102131.00
2019-02-25T20:04:14.141Z,102128.00
2019-02-25T20:06:48.952Z,102134.00
2019-02-25T20:09:23.912Z,102138.00
2019-02-25T20:11:57.380Z,102118.00
2019-02-25T20:14:31.514Z,102120.00
2019-02-25T20:17:06.228Z,102110.00
2019-02-25T20:19:41.268Z,102114.00
2019-02-25T20:22:16.292Z,102113.00
2019-02-25T20:24:50.615Z,102120.00
2019-02-25T20:27:25.871Z,102125.00
2019-02-25T20:30:00.257Z,102127.00
2019-02-25T20:32:36.255Z,102120.00
2019-02-25T20:35:11.366Z,102121.00
2019-02-25T20:37:48.757Z,102113.00
2019-02-25T20:40:21.797Z,102107.00
2019-02-25T20:42:57.778Z,102116.00
2019-02-25T20:45:33.208Z,102113.00
2019-02-25T20:48:06.367Z,102111.00
2019-02-25T20:50:39.710Z,102113.00
2019-02-25T20:53:12.847Z,102106.00
2019-02-25T20:55:48.116Z,102113.00
2019-02-25T20:58:23.120Z,102110.00
2019-02-25T21:00:56.502Z,102108.00
2019-02-25T21:03:29.678Z,102105.00
2019-02-25T21:06:03.147Z,102106.00
2019-02-25T21:08:37.439Z,102104.00
2019-02-25T21:11:13.501Z,102108.00
2019-02-25T21:13:46.414Z,102104.00
2019-02-25T21:16:19.635Z,102097.00
2019-02-25T21:18:54.611Z,102099.00
2019-02-25T21:21:30.301Z,102091.00
2019-02-25T21:24:04.238Z,102092.00
2019-02-25T21:26:39.125Z,102092.00
2019-02-25T21:29:13.448Z,102093.00
2019-02-25T21:31:47.563Z,102095.00
2019-02-25T21:34:24.416Z,102084.00
2019-02-25T21:36:58.500Z,102086.00
2019-02-25T21:39:32.635Z,102081.00
2019-02-25T21:42:10.677Z,102077.00
2019-02-25T21:44:46.183Z,102074.00
2019-02-25T21:47:20.222Z,102078.00
2019-02-25T21:49:52.466Z,102073.00
2019-02-25T21:52:27.395Z,102072.00
2019-02-25T21:55:02.670Z,102064.00
2019-02-25T21:57:38.699Z,102061.00
2019-02-25T22:00:15.007Z,102064.00
2019-02-25T22:02:50.526Z,102064.00
2019-02-25T22:05:23.833Z,102065.00
2019-02-25T22:07:59.447Z,102066.00
2019-02-25T22:10:34.095Z,102058.00
2019-02-25T22:13:09.460Z,102062.00
2019-02-25T22:15:42.998Z,102064.00
2019-02-25T22:18:17.452Z,102047.00
2019-02-25T22:20:51.441Z,102048.00
2019-02-25T22:23:26.118Z,102055.00
2019-02-25T22:25:59.641Z,102054.00
2019-02-25T22:28:34.792Z,102052.00
2019-02-25T22:31:08.904Z,102060.00
2019-02-25T22:33:42.816Z,102060.00
2019-02-25T22:36:15.947Z,102063.00
2019-02-25T22:38:49.109Z,102061.00
2019-02-25T22:41:22.956Z,102060.00
2019-02-25T22:43:57.363Z,102064.00
2019-02-25T22:46:32.233Z,102049.00
2019-02-25T22:49:07.318Z,102064.00
2019-02-25T22:51:40.581Z,102056.00
2019-02-25T22:54:14.779Z,102061.00
2019-02-25T22:56:48.597Z,102052.00
2019-02-25T22:59:21.623Z,102060.00
2019-02-25T23:01:54.753Z,102054.00
2019-02-25T23:04:27.842Z,102068.00
2019-02-25T23:07:01.002Z,102062.00
2019-02-25T23:09:34.029Z,102059.00
2019-02-25T23:12:07.208Z,102063.00
2019-02-25T23:14:40.965Z,102062.00
2019-02-25T23:17:17.399Z,102057.00
2019-02-25T23:19:50.377Z,102049.00
2019-02-25T23:22:23.570Z,102054.00
2019-02-25T23:24:56.700Z,102057.00
2019-02-25T23:27:32.309Z,102060.00
2019-02-25T23:30:08.420Z,102065.00
2019-02-25T23:32:40.857Z,102068.00
2019-02-25T23:35:18.396Z,102070.00
2019-02-25T23:37:54.496Z,102067.00
2019-02-25T23:40:27.024Z,102057.00
2019-02-25T23:43:01.457Z,102052.00
2019-02-25T23:45:36.165Z,102067.00
2019-02-25T23:48:11.821Z,102068.00
2019-02-25T23:50:45.065Z,102074.00
2019-02-25T23:53:18.196Z,102069.00
2019-02-25T23:55:52.659Z,102070.00
2019-02-25T23:58:26.724Z,102077.00
